Time;durP1;ratioP1;P1;durP2;ratioP2;P2;SDS_P1;SDS_P2;PMS_P1;PMS_P2;Temp;Humidity;BMP_temperature;BMP_pressure;BME280_temperature;BME280_humidity;BME280_pressure;Samples;Min_cycle;Max_cycle;Signal;HPM_P1;HPM_P2
2023/03/29 03:53:06;;;;;;;11.80;11.30;;;;;;;-1.78;67.51;93135.78;5084620;27;20333;-77
2023/03/29 03:55:32;;;;;;;11.03;10.53;;;;;;;-1.61;67.64;93177.19;5062882;28;20229;-75
2023/03/29 03:57:58;;;;;;;10.10;9.60;;;;;;;-1.56;67.86;93168.94;5044757;28;20265;-75
2023/03/29 04:00:24;;;;;;;10.37;9.83;;;;;;;-1.57;67.53;93183.50;5044825;28;20234;-75
2023/03/29 04:02:50;;;;;;;10.70;10.20;;;;;;;-1.60;68.35;93157.50;5045855;28;20194;-78
2023/03/29 04:05:16;;;;;;;10.70;10.20;;;;;;;-1.43;67.79;93179.22;5043417;28;20320;-76
2023/03/29 04:07:41;;;;;;;9.87;9.47;;;;;;;-1.59;67.67;93166.75;5046799;28;20179;-75
2023/03/29 04:10:07;;;;;;;9.87;9.47;;;;;;;-1.63;66.12;93168.13;5042176;28;20242;-74
2023/03/29 04:12:34;;;;;;;11.87;11.17;;;;;;;-1.51;65.18;93192.19;5042571;28;20208;-73
2023/03/29 04:15:00;;;;;;;10.87;10.47;;;;;;;-1.53;63.72;93177.03;5042251;28;20257;-73
2023/03/29 04:17:26;;;;;;;10.13;9.63;;;;;;;-1.50;63.82;93193.75;5042577;28;20195;-72
2023/03/29 04:19:51;;;;;;;10.87;10.43;;;;;;;-1.40;63.08;93199.31;5043514;28;20226;-78
2023/03/29 04:22:17;;;;;;;10.87;10.27;;;;;;;-1.47;63.95;93190.81;5044581;28;20193;-71
2023/03/29 04:24:42;;;;;;;11.13;10.63;;;;;;;-1.48;63.74;93202.84;5043807;28;20249;-71
2023/03/29 04:27:08;;;;;;;10.53;10.03;;;;;;;-1.46;61.44;93198.28;5044797;28;20265;-70
2023/03/29 04:29:33;;;;;;;11.33;10.73;;;;;;;-1.17;61.66;93181.84;5042104;28;20683;-71
2023/03/29 04:31:58;;;;;;;11.07;10.50;;;;;;;-1.36;62.60;93195.38;5042835;28;20212;-71
2023/03/29 04:34:24;;;;;;;10.50;10.00;;;;;;;-1.36;61.41;93190.25;5042960;28;20225;-71
2023/03/29 04:36:49;;;;;;;11.73;11.13;;;;;;;-1.27;65.28;93194.22;5040873;28;20174;-71
2023/03/29 04:39:16;;;;;;;12.07;11.43;;;;;;;-1.51;61.48;93171.72;5043182;28;20224;-71
2023/03/29 04:41:46;;;;;;;10.47;9.97;;;;;;;-1.44;61.50;93186.09;5042804;28;20189;-70
2023/03/29 04:44:13;;;;;;;14.30;12.83;;;;;;;-1.42;62.23;93194.38;5040432;28;20221;-72
2023/03/29 04:46:39;;;;;;;13.77;12.60;;;;;;;-1.31;62.50;93201.53;5043126;28;20214;-70
2023/03/29 04:49:05;;;;;;;14.47;13.13;;;;;;;-1.26;62.98;93206.81;5043125;28;20213;-70
2023/03/29 04:51:32;;;;;;;44.40;21.13;;;;;;;-1.31;62.77;93187.91;5047667;28;20225;-70
2023/03/29 04:53:58;;;;;;;12.80;12.10;;;;;;;-1.32;61.90;93201.72;5062628;28;20194;-70
2023/03/29 04:56:23;;;;;;;11.33;10.67;;;;;;;-1.44;62.99;93200.66;5062771;28;20283;-71
2023/03/29 04:58:49;;;;;;;13.10;12.27;;;;;;;-1.24;64.08;93214.31;5061930;28;20249;-71
2023/03/29 05:01:15;;;;;;;11.50;10.80;;;;;;;-1.16;63.98;93225.19;5061396;28;20226;-73
2023/03/29 05:03:40;;;;;;;12.80;11.80;;;;;;;-1.42;62.10;93186.72;5055230;28;20182;-74
2023/03/29 05:06:08;;;;;;;12.03;11.33;;;;;;;-1.30;61.51;93203.09;5049791;28;20222;-73
2023/03/29 05:08:37;;;;;;;12.77;11.97;;;;;;;-1.30;60.83;93226.13;5049439;28;20206;-74
2023/03/29 05:11:05;;;;;;;10.97;10.20;;;;;;;-1.20;60.86;93234.25;5049873;28;20870;-72
2023/03/29 05:13:31;;;;;;;13.30;12.40;;;;;;;-1.19;62.03;93227.34;5027710;28;20220;-73
2023/03/29 05:15:56;;;;;;;11.07;10.47;;;;;;;-1.08;60.38;93237.84;5049730;28;20221;-73
2023/03/29 05:18:22;;;;;;;12.43;11.83;;;;;;;-1.24;59.03;93220.25;5050670;28;20186;-71
2023/03/29 05:20:51;;;;;;;12.10;11.37;;;;;;;-0.98;59.14;93245.16;5050372;28;20260;-71
2023/03/29 05:23:17;;;;;;;11.97;10.93;;;;;;;-0.99;61.48;93234.09;5051345;28;20216;-70
2023/03/29 05:25:42;;;;;;;11.97;11.37;;;;;;;-1.02;60.37;93262.69;5048671;28;20253;-69
2023/03/29 05:28:08;;;;;;;10.13;9.67;;;;;;;-1.30;60.92;93261.19;5051193;28;20183;-69
2023/03/29 05:30:33;;;;;;;11.70;11.20;;;;;;;-1.19;61.72;93253.75;5047754;28;20217;-71
2023/03/29 05:33:01;;;;;;;10.20;9.70;;;;;;;-1.17;62.00;93220.25;5048971;28;20225;-73
2023/03/29 05:35:27;;;;;;;10.90;10.30;;;;;;;-1.01;62.25;93256.56;5049720;28;20248;-73
2023/03/29 05:37:54;;;;;;;11.60;11.00;;;;;;;-0.93;62.17;93268.41;5033795;28;20191;-71
2023/03/29 05:40:19;;;;;;;10.97;10.47;;;;;;;-0.88;63.46;93253.25;5050803;28;20218;-70
2023/03/29 05:42:45;;;;;;;12.67;11.87;;;;;;;-0.89;61.90;93267.03;5051709;28;20195;-70
2023/03/29 05:45:10;;;;;;;11.77;11.17;;;;;;;-0.78;61.62;93248.53;5050380;28;20346;-71
2023/03/29 05:47:36;;;;;;;12.10;11.37;;;;;;;-0.69;60.24;93229.44;5051553;28;20193;-71
2023/03/29 05:50:01;;;;;;;11.80;11.13;;;;;;;-0.27;59.86;93270.09;5050654;28;20229;-71
2023/03/29 05:52:27;;;;;;;10.93;10.43;;;;;;;-0.35;59.87;93277.97;5051619;28;20252;-71
2023/03/29 05:54:52;;;;;;;12.73;12.03;;;;;;;-0.57;59.63;93249.16;5049528;28;20263;-70
2023/03/29 05:57:18;;;;;;;11.80;11.13;;;;;;;-0.12;60.81;93284.31;5050778;28;20190;-71
2023/03/29 05:59:43;;;;;;;11.23;10.17;;;;;;;-0.16;59.64;93288.22;5049593;28;20234;-71
2023/03/29 06:02:10;;;;;;;11.03;10.43;;;;;;;-0.44;60.68;93274.81;5033782;28;20205;-70
2023/03/29 06:04:36;;;;;;;10.83;9.87;;;;;;;-0.38;59.82;93276.59;5049785;28;20230;-71
2023/03/29 06:07:03;;;;;;;11.43;10.87;;;;;;;-0.42;59.46;93279.75;5050444;28;20210;-71
2023/03/29 06:09:28;;;;;;;12.60;11.77;;;;;;;-0.43;59.74;93289.22;5048919;28;20213;-70
2023/03/29 06:11:55;;;;;;;10.90;10.37;;;;;;;-0.45;59.03;93290.41;5052267;28;20217;-71
2023/03/29 06:14:22;;;;;;;10.40;9.67;;;;;;;-0.32;57.43;93287.84;5049041;28;20190;-70
2023/03/29 06:16:47;;;;;;;10.60;10.20;;;;;;;-0.36;55.99;93300.25;5050376;28;20180;-71
2023/03/29 06:19:13;;;;;;;10.30;9.70;;;;;;;-0.28;56.04;93294.19;5049003;28;20182;-70
2023/03/29 06:21:38;;;;;;;10.20;9.70;;;;;;;-0.08;56.34;93300.88;5049865;28;20305;-71
2023/03/29 06:24:04;;;;;;;10.40;10.00;;;;;;;-0.08;57.19;93298.31;5048803;28;20189;-71
2023/03/29 06:26:29;;;;;;;10.47;9.87;;;;;;;-0.24;57.63;93301.28;5050025;28;20234;-72
2023/03/29 06:28:55;;;;;;;10.67;10.17;;;;;;;0.01;57.01;93283.50;5050092;28;20178;-71
2023/03/29 06:31:20;;;;;;;10.73;10.23;;;;;;;0.37;56.77;93304.41;5048692;28;20225;-71
2023/03/29 06:33:46;;;;;;;12.20;11.40;;;;;;;0.24;55.80;93295.91;5049668;28;20213;-71
2023/03/29 06:36:14;;;;;;;13.70;12.60;;;;;;;0.30;55.73;93318.22;5050301;28;20214;-71
2023/03/29 06:38:40;;;;;;;11.50;10.70;;;;;;;0.13;57.53;93293.94;5050548;28;20209;-71
2023/03/29 06:41:07;;;;;;;12.60;11.77;;;;;;;0.42;57.19;93316.66;5049767;28;20218;-71
2023/03/29 06:43:33;;;;;;;11.00;10.40;;;;;;;0.31;55.71;93336.03;5050033;28;20188;-71
2023/03/29 06:46:00;;;;;;;11.40;10.90;;;;;;;0.14;55.55;93318.66;5049284;28;20281;-71
2023/03/29 06:48:26;;;;;;;10.33;9.73;;;;;;;0.35;55.15;93315.84;5048760;28;20204;-71
2023/03/29 06:50:53;;;;;;;10.03;9.53;;;;;;;0.41;55.28;93333.81;5045883;28;20225;-71
2023/03/29 06:53:19;;;;;;;10.20;9.73;;;;;;;0.27;55.68;93314.28;5030176;28;20230;-71
2023/03/29 06:55:44;;;;;;;11.30;10.50;;;;;;;0.28;55.60;93325.34;5029391;28;20222;-71
2023/03/29 06:58:10;;;;;;;9.93;9.43;;;;;;;0.39;56.70;93332.47;5029864;28;20191;-71
2023/03/29 07:00:37;;;;;;;10.67;10.03;;;;;;;0.54;54.73;93323.53;5029531;28;20242;-71
2023/03/29 07:03:06;;;;;;;12.27;11.40;;;;;;;0.81;56.03;93322.47;5028419;28;20195;-71
2023/03/29 07:05:32;;;;;;;10.00;9.53;;;;;;;0.61;54.38;93332.00;5027419;28;20214;-71
2023/03/29 07:08:10;;;;;;;10.50;9.90;;;;;;;0.70;53.29;93294.84;5028712;28;20194;-71
2023/03/29 07:10:38;;;;;;;11.27;10.47;;;;;;;0.63;53.61;93314.63;5029359;28;20246;-71
2023/03/29 07:13:06;;;;;;;10.83;9.93;;;;;;;0.90;52.99;93298.13;5027438;28;20211;-71
2023/03/29 07:15:32;;;;;;;10.63;10.13;;;;;;;1.25;51.96;93308.88;5029063;28;20250;-71
2023/03/29 07:17:57;;;;;;;11.07;10.50;;;;;;;1.09;52.11;93324.78;5028100;28;20187;-70
2023/03/29 07:20:23;;;;;;;10.93;10.33;;;;;;;1.14;51.12;93310.31;5018241;28;20294;-71
2023/03/29 07:22:50;;;;;;;11.30;10.57;;;;;;;1.09;52.62;93324.78;5010375;28;20183;-71
2023/03/29 07:25:17;;;;;;;11.37;10.57;;;;;;;1.30;52.05;93322.69;5017718;28;20352;-71
2023/03/29 07:27:43;;;;;;;11.00;10.13;;;;;;;1.17;51.43;93312.47;5028961;28;20210;-71
2023/03/29 07:30:13;;;;;;;9.97;9.47;;;;;;;1.21;50.37;93313.66;5027001;28;20257;-70
2023/03/29 07:32:40;;;;;;;10.73;10.23;;;;;;;1.28;50.39;93324.69;5028523;28;20206;-71
2023/03/29 07:35:07;;;;;;;9.47;8.97;;;;;;;1.49;50.39;93311.50;5026777;28;20223;-70
2023/03/29 07:37:36;;;;;;;9.17;8.77;;;;;;;1.75;51.11;93326.00;5027908;28;20206;-67
2023/03/29 07:40:08;;;;;;;10.17;9.67;;;;;;;1.91;50.60;93317.00;5025328;28;20289;-70
2023/03/29 07:42:35;;;;;;;9.60;8.80;;;;;;;1.95;48.56;93284.69;5028091;28;20232;-72
2023/03/29 07:45:05;;;;;;;10.13;9.73;;;;;;;1.49;49.01;93303.78;5028460;28;20231;-72
2023/03/29 07:47:30;;;;;;;9.73;9.33;;;;;;;1.57;51.03;93293.25;5028939;28;20186;-72
2023/03/29 07:49:56;;;;;;;10.03;9.60;;;;;;;1.87;49.13;93313.28;5020808;28;20238;-70
2023/03/29 07:52:22;;;;;;;9.60;9.20;;;;;;;2.13;49.79;93295.06;5020734;28;20286;-70
2023/03/29 07:54:47;;;;;;;9.53;9.13;;;;;;;1.72;48.98;93299.91;5032858;28;20256;-69
2023/03/29 07:57:13;;;;;;;10.13;9.73;;;;;;;1.68;47.83;93296.97;5046503;28;20197;-70
2023/03/29 07:59:38;;;;;;;9.83;9.43;;;;;;;1.67;47.42;93263.72;5048722;28;20312;-70
2023/03/29 08:02:04;;;;;;;10.43;10.00;;;;;;;1.79;47.63;93267.19;5047873;28;20178;-71
2023/03/29 08:04:30;;;;;;;9.53;9.13;;;;;;;2.03;48.82;93287.00;5046587;28;20252;-69
2023/03/29 08:06:55;;;;;;;10.23;9.80;;;;;;;2.05;46.41;93297.88;5028233;28;20258;-73
2023/03/29 08:09:21;;;;;;;10.47;9.57;;;;;;;1.97;45.83;93287.84;5027285;28;20202;-72
2023/03/29 08:11:46;;;;;;;10.23;9.83;;;;;;;1.84;44.56;93287.97;5027072;28;20218;-71
2023/03/29 08:14:12;;;;;;;10.73;10.07;;;;;;;1.99;47.58;93278.94;5028785;28;20241;-72
2023/03/29 08:16:37;;;;;;;10.57;10.10;;;;;;;2.10;46.06;93262.00;5025921;28;20286;-72
2023/03/29 08:19:02;;;;;;;10.53;9.97;;;;;;;2.21;45.28;93269.03;5028644;28;20195;-71
2023/03/29 08:21:28;;;;;;;8.93;8.57;;;;;;;2.63;46.36;93283.69;5027928;28;20246;-71
2023/03/29 08:23:53;;;;;;;10.57;9.93;;;;;;;2.41;45.91;93272.22;5028587;28;20191;-71
2023/03/29 08:26:18;;;;;;;10.53;10.03;;;;;;;2.61;45.93;93268.44;5026515;28;20230;-71
2023/03/29 08:28:44;;;;;;;11.63;11.03;;;;;;;2.59;45.27;93287.69;5026938;28;20191;-72
2023/03/29 08:31:10;;;;;;;10.27;9.87;;;;;;;2.20;44.68;93278.53;5029500;28;21897;-72
2023/03/29 08:33:36;;;;;;;10.33;9.93;;;;;;;2.15;45.16;93270.66;5028533;28;20210;-71
2023/03/29 08:36:02;;;;;;;10.60;10.00;;;;;;;2.42;43.00;93276.34;5027822;28;20226;-69
2023/03/29 08:38:27;;;;;;;9.53;9.20;;;;;;;2.28;42.89;93275.69;5028455;28;20190;-73
2023/03/29 08:40:53;;;;;;;10.83;10.37;;;;;;;2.37;42.36;93278.78;5031529;28;20731;-69
2023/03/29 08:43:33;;;;;;;10.17;9.67;;;;;;;2.62;43.79;93282.09;5031318;28;20214;-70
2023/03/29 08:46:07;;;;;;;10.13;9.53;;;;;;;2.58;44.45;93263.72;5029980;28;20226;-69
2023/03/29 08:48:41;;;;;;;11.03;10.43;;;;;;;2.73;43.36;93273.66;5006922;28;20194;-68
2023/03/29 08:51:21;;;;;;;10.03;9.07;;;;;;;2.95;42.04;93277.38;5030907;28;20230;-70
2023/03/29 08:53:55;;;;;;;8.90;8.30;;;;;;;2.62;42.10;93295.00;5014192;28;20201;-68
2023/03/29 08:56:27;;;;;;;10.70;10.17;;;;;;;2.55;42.16;93278.81;5030722;28;20230;-68
2023/03/29 08:58:55;;;;;;;9.67;9.00;;;;;;;2.43;41.69;93289.03;5031177;28;20207;-70
2023/03/29 09:01:22;;;;;;;9.67;9.17;;;;;;;2.62;43.14;93275.16;5030469;28;20226;-70
2023/03/29 09:04:17;;;;;;;9.97;9.37;;;;;;;3.02;44.13;93278.88;5030056;28;20195;-70
2023/03/29 09:06:43;;;;;;;10.47;9.97;;;;;;;3.02;42.36;93267.78;5051001;28;20218;-69
2023/03/29 09:09:15;;;;;;;9.00;8.50;;;;;;;3.03;41.80;93259.06;5051611;28;20190;-68
2023/03/29 09:11:50;;;;;;;9.53;9.07;;;;;;;3.13;41.44;93269.63;5050966;28;20298;-67
2023/03/29 09:14:51;;;;;;;10.40;9.80;;;;;;;2.95;39.83;93282.53;5051334;28;20209;-70
2023/03/29 09:17:42;;;;;;;9.67;9.07;;;;;;;3.04;41.41;93268.34;5051246;28;20193;-68
2023/03/29 09:20:28;;;;;;;10.57;9.87;;;;;;;3.50;42.05;93286.63;5048313;28;20248;-68
2023/03/29 09:23:06;;;;;;;9.63;9.20;;;;;;;3.16;40.52;93275.16;5048804;28;20190;-67
2023/03/29 09:25:56;;;;;;;10.07;9.50;;;;;;;3.49;42.03;93266.97;5050272;28;20229;-66
2023/03/29 09:28:35;;;;;;;9.93;9.43;;;;;;;3.58;41.31;93273.41;5050361;28;20221;-68
2023/03/29 09:31:23;;;;;;;9.57;9.17;;;;;;;3.50;39.36;93260.81;5050327;28;20240;-68
2023/03/29 09:33:57;;;;;;;10.77;10.23;;;;;;;3.69;39.49;93259.75;5032606;28;20186;-72
2023/03/29 09:36:35;;;;;;;9.50;9.00;;;;;;;3.63;39.58;93270.94;5049661;28;20217;-72
2023/03/29 09:39:02;;;;;;;10.30;9.87;;;;;;;3.84;38.46;93257.56;5050817;28;20265;-76
2023/03/29 09:41:50;;;;;;;9.37;8.87;;;;;;;3.75;40.31;93258.84;5050125;28;20228;-70
2023/03/29 09:44:28;;;;;;;8.83;8.43;;;;;;;3.73;38.63;93255.72;5049552;28;20190;-71
2023/03/29 09:46:57;;;;;;;9.73;9.33;;;;;;;3.52;39.51;93258.03;5049334;28;20220;-73
2023/03/29 09:49:30;;;;;;;9.67;9.23;;;;;;;3.99;40.76;93255.31;5032204;28;20185;-71
2023/03/29 09:52:01;;;;;;;9.70;9.30;;;;;;;3.85;38.65;93259.13;5050032;28;20272;-73
2023/03/29 09:54:27;;;;;;;9.60;9.00;;;;;;;3.63;38.53;93262.44;5048909;28;20186;-73
2023/03/29 09:56:52;;;;;;;9.60;9.20;;;;;;;3.74;36.96;93270.19;5031747;28;20208;-71
2023/03/29 09:59:18;;;;;;;9.27;8.67;;;;;;;3.79;37.11;93248.88;5050188;28;20189;-79
2023/03/29 10:01:44;;;;;;;9.87;9.27;;;;;;;3.85;35.49;93264.28;5050310;28;20190;-81
2023/03/29 10:04:10;;;;;;;10.37;9.77;;;;;;;3.74;36.96;93230.69;5049383;28;20181;-82
2023/03/29 10:06:42;;;;;;;11.33;10.60;;;;;;;3.91;34.67;93260.00;5049028;28;20241;-75
2023/03/29 10:09:16;;;;;;;11.40;10.67;;;;;;;4.42;33.30;93255.03;5049901;28;20205;-75
2023/03/29 10:11:46;;;;;;;10.63;9.87;;;;;;;4.24;33.76;93243.00;5047936;28;20260;-75
2023/03/29 10:14:18;;;;;;;11.37;10.57;;;;;;;4.29;34.10;93250.88;5049174;28;20190;-75
2023/03/29 10:16:44;;;;;;;10.37;9.60;;;;;;;4.25;35.97;93223.88;5049992;28;20210;-75
2023/03/29 10:19:14;;;;;;;9.43;9.03;;;;;;;4.26;32.00;93251.31;5048717;28;20182;-76
2023/03/29 10:21:41;;;;;;;8.57;8.17;;;;;;;4.17;33.82;93237.13;5049895;28;20210;-77
2023/03/29 10:24:08;;;;;;;8.70;8.40;;;;;;;4.35;33.73;93242.22;5048810;28;20181;-76
2023/03/29 10:26:37;;;;;;;11.30;10.60;;;;;;;4.45;32.54;93237.25;5048629;28;20233;-76
2023/03/29 10:29:06;;;;;;;10.57;9.93;;;;;;;4.58;32.59;93239.59;5050646;28;20343;-75
2023/03/29 10:31:32;;;;;;;10.27;9.77;;;;;;;4.76;32.08;93242.03;5048582;28;20253;-76
2023/03/29 10:34:02;;;;;;;10.27;9.67;;;;;;;4.70;32.04;93248.13;5048363;28;20183;-75
2023/03/29 10:36:28;;;;;;;9.57;9.10;;;;;;;4.58;32.16;93225.88;5031773;28;20222;-75
2023/03/29 10:38:57;;;;;;;9.87;9.47;;;;;;;5.09;32.88;93231.06;5048460;28;20197;-77
2023/03/29 10:41:25;;;;;;;9.53;9.13;;;;;;;4.76;30.78;93233.53;5048098;28;20230;-74
2023/03/29 10:43:52;;;;;;;9.17;8.83;;;;;;;4.60;29.65;93227.25;5047277;28;20189;-76
2023/03/29 10:46:29;;;;;;;12.10;10.77;;;;;;;5.60;49.85;93230.19;5031666;28;20214;-74
2023/03/29 10:49:03;;;;;;;7.97;7.60;;;;;;;5.15;31.43;93229.38;5026986;28;20210;-74
2023/03/29 10:51:29;;;;;;;9.20;8.80;;;;;;;5.38;32.75;93230.06;5047794;28;20314;-73
2023/03/29 10:53:57;;;;;;;8.53;8.23;;;;;;;5.33;31.62;93231.78;5049353;28;20254;-74
2023/03/29 10:56:35;;;;;;;9.50;9.10;;;;;;;5.09;31.09;93219.94;5047199;28;20290;-74
2023/03/29 10:59:21;;;;;;;10.47;9.87;;;;;;;5.10;31.07;93214.53;5048944;28;20198;-73
2023/03/29 11:01:50;;;;;;;10.37;9.97;;;;;;;4.93;32.43;93222.22;5047663;28;20217;-74
2023/03/29 11:04:29;;;;;;;9.87;9.37;;;;;;;4.90;32.31;93201.97;5049066;28;20225;-73
2023/03/29 11:07:27;;;;;;;9.57;8.97;;;;;;;5.01;31.43;93213.34;5021990;28;20185;-73
2023/03/29 11:10:03;;;;;;;9.53;8.93;;;;;;;4.96;32.53;93201.06;5024512;28;20249;-75
2023/03/29 11:12:39;;;;;;;9.20;8.67;;;;;;;5.15;32.68;93208.66;5030432;28;20221;-74
2023/03/29 11:15:21;;;;;;;9.73;9.27;;;;;;;5.42;32.81;93196.72;5047388;28;20286;-75
2023/03/29 11:18:09;;;;;;;9.47;9.07;;;;;;;5.63;33.66;93191.69;5049382;28;20305;-74
2023/03/29 11:20:47;;;;;;;9.87;9.27;;;;;;;5.67;30.22;93208.31;5046661;28;20245;-74
2023/03/29 11:23:18;;;;;;;9.43;9.03;;;;;;;5.33;30.00;93203.28;5046971;28;20190;-72
2023/03/29 11:25:56;;;;;;;9.27;8.77;;;;;;;5.22;32.23;93194.56;5046239;28;20225;-73
2023/03/29 11:28:48;;;;;;;10.43;9.83;;;;;;;5.55;30.48;93178.31;5046229;28;20228;-73
2023/03/29 11:31:27;;;;;;;9.97;9.63;;;;;;;5.47;29.15;93191.63;5043140;28;20234;-74
2023/03/29 11:33:55;;;;;;;11.10;10.57;;;;;;;5.53;29.82;93190.69;5048341;28;20189;-73
2023/03/29 11:36:49;;;;;;;9.40;8.90;;;;;;;5.48;31.25;93177.69;5030600;28;20221;-73
2023/03/29 11:39:23;;;;;;;10.03;9.43;;;;;;;5.81;31.66;93193.25;5047000;28;20194;-74
2023/03/29 11:41:53;;;;;;;10.53;9.93;;;;;;;5.29;31.00;93179.69;5047948;28;20190;-73
2023/03/29 11:44:24;;;;;;;10.10;9.53;;;;;;;5.51;31.90;93192.75;5048127;28;20198;-73
2023/03/29 11:47:00;;;;;;;11.00;10.40;;;;;;;5.56;29.22;93203.19;5048471;28;20186;-74
2023/03/29 11:49:31;;;;;;;9.33;8.83;;;;;;;5.58;29.73;93172.66;5045536;28;20201;-74
2023/03/29 11:52:13;;;;;;;10.20;9.63;;;;;;;5.77;28.93;93184.38;5048021;28;20252;-73
2023/03/29 11:54:54;;;;;;;10.40;9.90;;;;;;;5.51;29.18;93172.03;5048068;28;20236;-73
2023/03/29 11:57:57;;;;;;;9.80;9.40;;;;;;;5.64;30.39;93192.44;5049145;28;20232;-74
2023/03/29 12:00:41;;;;;;;10.03;9.33;;;;;;;5.80;29.67;93181.31;5048764;28;20255;-72
2023/03/29 12:03:12;;;;;;;9.93;9.53;;;;;;;5.86;29.51;93176.00;5047077;28;20197;-75
2023/03/29 12:05:46;;;;;;;9.57;9.17;;;;;;;5.95;29.17;93168.63;5047232;28;20252;-74
2023/03/29 12:08:15;;;;;;;9.30;8.97;;;;;;;6.22;30.02;93177.31;5046483;28;20196;-74
2023/03/29 12:11:02;;;;;;;9.57;8.83;;;;;;;6.08;31.68;93182.06;5046703;28;20226;-74
2023/03/29 12:13:27;;;;;;;9.17;8.57;;;;;;;6.15;30.72;93184.47;5048723;28;20261;-73
2023/03/29 12:16:00;;;;;;;10.43;9.83;;;;;;;6.12;30.10;93182.34;5050732;28;20222;-74
2023/03/29 12:18:54;;;;;;;8.90;8.50;;;;;;;5.73;30.63;93185.84;5031322;28;20205;-74
2023/03/29 12:21:25;;;;;;;9.77;9.37;;;;;;;5.90;30.45;93181.53;5048518;28;20317;-73
2023/03/29 12:23:51;;;;;;;9.63;9.27;;;;;;;5.65;30.37;93131.88;5052135;28;20240;-75
2023/03/29 12:26:58;;;;;;;9.20;8.80;;;;;;;5.94;30.43;93185.19;5052271;28;20225;-76
2023/03/29 12:29:53;;;;;;;10.00;9.50;;;;;;;5.98;29.99;93181.09;5041079;28;20225;-74
2023/03/29 12:32:40;;;;;;;10.57;10.07;;;;;;;6.22;30.47;93185.09;5050656;28;20611;-73
2023/03/29 12:35:27;;;;;;;9.80;9.03;;;;;;;6.16;29.51;93192.00;5050696;28;20226;-73
2023/03/29 12:38:18;;;;;;;8.53;8.20;;;;;;;5.82;30.63;93146.41;5049893;28;20186;-74
2023/03/29 12:40:56;;;;;;;8.67;8.37;;;;;;;6.15;31.03;93184.47;5050828;28;20248;-73
2023/03/29 12:43:42;;;;;;;9.97;9.57;;;;;;;6.21;30.59;93202.44;5051148;28;20185;-74
2023/03/29 12:46:18;;;;;;;9.60;9.20;;;;;;;6.04;30.40;93198.28;5049060;28;20281;-75
2023/03/29 12:48:48;;;;;;;10.73;10.27;;;;;;;6.00;27.90;93203.19;5051903;28;20166;-71
2023/03/29 12:51:21;;;;;;;9.10;8.60;;;;;;;6.18;27.50;93204.72;5051638;28;20225;-72
2023/03/29 12:53:53;;;;;;;9.53;9.03;;;;;;;6.03;29.32;93201.91;5050996;28;20205;-71
2023/03/29 12:56:22;;;;;;;11.10;10.37;;;;;;;6.14;30.39;93211.41;5050423;28;20257;-71
2023/03/29 12:58:52;;;;;;;10.50;10.10;;;;;;;6.10;30.44;93212.94;5051774;28;20334;-71
2023/03/29 13:01:35;;;;;;;9.13;8.73;;;;;;;6.20;31.22;93202.69;5050483;28;20240;-71
2023/03/29 13:04:02;;;;;;;10.27;9.67;;;;;;;6.36;30.63;93201.91;5049657;28;20194;-72
2023/03/29 13:06:34;;;;;;;10.30;9.73;;;;;;;6.44;30.09;93204.09;5050751;28;20237;-72
2023/03/29 13:09:20;;;;;;;9.50;9.03;;;;;;;6.51;29.25;93202.09;5051252;28;20197;-72
2023/03/29 13:11:51;;;;;;;10.63;10.03;;;;;;;6.29;29.63;93196.88;5030193;28;20233;-71
2023/03/29 13:14:20;;;;;;;12.33;11.53;;;;;;;6.51;33.48;93199.50;5030888;28;20206;-71
2023/03/29 13:16:46;;;;;;;9.97;9.57;;;;;;;6.43;29.80;93207.69;5030213;28;20191;-72
2023/03/29 13:19:26;;;;;;;11.33;10.77;;;;;;;6.68;30.72;93210.63;5031287;28;20748;-72
2023/03/29 13:22:30;;;;;;;9.93;9.33;;;;;;;6.70;29.01;93200.81;5048309;28;20221;-72
2023/03/29 13:25:01;;;;;;;11.37;10.83;;;;;;;6.28;28.45;93197.91;5012199;28;20233;-70
2023/03/29 13:27:42;;;;;;;10.27;9.77;;;;;;;6.51;28.72;93221.03;5049906;28;20186;-71
2023/03/29 13:30:24;;;;;;;9.63;9.13;;;;;;;6.16;28.10;93206.78;5050674;28;20225;-71
2023/03/29 13:33:04;;;;;;;10.53;9.90;;;;;;;6.30;28.28;93213.22;5030297;28;20207;-70
2023/03/29 13:36:00;;;;;;;10.63;9.80;;;;;;;6.45;29.02;93205.66;5050200;28;20222;-71
2023/03/29 13:38:30;;;;;;;9.30;9.00;;;;;;;6.54;28.30;93199.81;5050450;28;20241;-72
2023/03/29 13:40:56;;;;;;;11.10;10.40;;;;;;;6.63;27.70;93207.97;5050646;28;20252;-70
2023/03/29 13:43:36;;;;;;;9.43;9.13;;;;;;;6.31;27.43;93212.97;5048323;28;20190;-70
2023/03/29 13:46:02;;;;;;;11.03;10.40;;;;;;;6.40;27.70;93193.41;5046751;28;20228;-72
2023/03/29 13:48:32;;;;;;;9.50;9.10;;;;;;;6.24;26.99;93214.19;5048589;28;20221;-72
2023/03/29 13:51:06;;;;;;;8.37;8.07;;;;;;;6.31;27.17;93196.63;5049766;28;20230;-71
2023/03/29 13:53:50;;;;;;;8.80;8.40;;;;;;;6.26;26.69;93204.34;5049243;28;20185;-71
2023/03/29 13:56:24;;;;;;;9.57;9.07;;;;;;;6.46;27.60;93202.03;5048094;28;20233;-71
2023/03/29 13:59:04;;;;;;;9.33;8.93;;;;;;;6.45;27.00;93195.28;5048524;28;20691;-72
2023/03/29 14:01:44;;;;;;;8.90;8.50;;;;;;;6.42;26.58;93217.28;5050423;28;20233;-71
2023/03/29 14:04:19;;;;;;;9.47;8.87;;;;;;;6.34;26.27;93203.94;5049357;28;20242;-71
2023/03/29 14:06:51;;;;;;;10.17;9.77;;;;;;;6.42;27.15;93200.94;5049206;28;20213;-70
2023/03/29 14:09:20;;;;;;;9.10;8.70;;;;;;;6.46;27.11;93191.66;5049690;28;20201;-71
2023/03/29 14:11:46;;;;;;;9.27;8.87;;;;;;;6.71;26.52;93204.97;5049956;28;20218;-70
2023/03/29 14:14:12;;;;;;;9.60;9.20;;;;;;;6.89;27.06;93206.47;5049370;28;20197;-71
2023/03/29 14:16:39;;;;;;;10.43;9.93;;;;;;;6.96;27.97;93176.72;5032246;28;20225;-70
2023/03/29 14:19:36;;;;;;;10.03;9.37;;;;;;;6.74;28.20;93201.13;5035076;28;20178;-71
2023/03/29 14:22:08;;;;;;;10.23;9.57;;;;;;;6.72;28.44;93208.34;5047676;28;20206;-72
2023/03/29 14:24:39;;;;;;;9.57;9.17;;;;;;;6.71;28.96;93204.19;5042842;28;20250;-70
2023/03/29 14:27:06;;;;;;;9.37;8.97;;;;;;;6.81;28.84;93206.91;5026208;28;20171;-71
2023/03/29 14:29:33;;;;;;;9.63;9.23;;;;;;;6.71;27.21;93206.78;5026244;28;20198;-76
2023/03/29 14:32:10;;;;;;;9.87;9.37;;;;;;;6.52;27.43;93206.28;5029813;28;20233;-74
2023/03/29 14:34:36;;;;;;;9.13;8.63;;;;;;;6.56;28.30;93207.34;5028101;28;20225;-73
2023/03/29 14:37:03;;;;;;;10.07;9.37;;;;;;;6.53;28.70;93221.59;5011658;28;20202;-73
2023/03/29 14:39:32;;;;;;;9.63;9.23;;;;;;;6.44;28.50;93222.25;5026271;28;21094;-75
2023/03/29 14:41:58;;;;;;;10.13;9.73;;;;;;;6.39;27.40;93227.34;5025702;28;20233;-76
2023/03/29 14:44:30;;;;;;;10.23;9.63;;;;;;;6.38;27.08;93226.56;5028780;28;20207;-75
2023/03/29 14:46:56;;;;;;;19.87;14.90;;;;;;;6.35;28.54;93226.28;5026053;28;20195;-75
2023/03/29 14:49:23;;;;;;;14.30;12.80;;;;;;;6.42;29.23;93232.84;5012212;28;20194;-76
2023/03/29 14:51:49;;;;;;;13.13;12.13;;;;;;;6.41;29.73;93220.13;5027186;28;20231;-75
2023/03/29 14:54:19;;;;;;;19.77;14.13;;;;;;;6.53;29.64;93224.19;5027480;28;20254;-75
2023/03/29 14:56:47;;;;;;;9.30;8.90;;;;;;;6.45;29.48;93218.63;5024573;28;20179;-75
2023/03/29 14:59:40;;;;;;;9.10;8.80;;;;;;;6.29;29.78;93227.19;5009017;28;20191;-75
2023/03/29 15:02:24;;;;;;;10.03;9.43;;;;;;;6.29;30.36;93217.63;5026138;28;20221;-76
2023/03/29 15:05:04;;;;;;;11.80;10.73;;;;;;;6.38;30.60;93230.97;5032202;28;20237;-75
2023/03/29 15:07:33;;;;;;;9.57;8.97;;;;;;;6.37;31.44;93227.59;5047002;28;20193;-75
2023/03/29 15:10:01;;;;;;;10.63;9.93;;;;;;;5.85;30.61;93210.69;5046022;28;20378;-76
2023/03/29 15:12:31;;;;;;;10.77;10.07;;;;;;;5.91;31.19;93224.53;5048635;28;20339;-75
2023/03/29 15:14:57;;;;;;;10.50;9.87;;;;;;;5.79;31.57;93236.75;5048321;28;20267;-75
2023/03/29 15:17:37;;;;;;;9.87;9.37;;;;;;;5.69;31.41;93231.38;5047750;28;20218;-75
2023/03/29 15:20:12;;;;;;;10.00;9.50;;;;;;;5.68;31.81;93224.66;5047961;28;20225;-76
2023/03/29 15:22:49;;;;;;;10.73;10.03;;;;;;;5.68;31.07;93228.00;5049101;28;20277;-76
2023/03/29 15:25:16;;;;;;;10.20;9.63;;;;;;;5.58;31.07;93232.22;5048171;28;20324;-75
2023/03/29 15:27:43;;;;;;;10.70;10.03;;;;;;;5.57;31.97;93239.19;5048150;28;20583;-75
2023/03/29 15:30:15;;;;;;;9.33;8.83;;;;;;;5.55;31.31;93251.63;5048338;28;20229;-75
2023/03/29 15:32:41;;;;;;;10.40;9.70;;;;;;;5.43;31.45;93240.50;5047898;28;20225;-75
2023/03/29 15:35:21;;;;;;;10.43;9.93;;;;;;;5.55;31.60;93240.47;5047548;28;20293;-75
2023/03/29 15:37:47;;;;;;;10.50;10.07;;;;;;;5.56;32.23;93242.03;5048807;28;20202;-75
2023/03/29 15:40:20;;;;;;;10.17;9.67;;;;;;;5.41;33.51;93244.34;5047546;28;20261;-75
2023/03/29 15:42:45;;;;;;;9.17;8.57;;;;;;;5.34;32.72;93243.72;5048672;28;20216;-76